Time;durP1;ratioP1;P1;durP2;ratioP2;P2;SDS_P1;SDS_P2;PMS_P1;PMS_P2;Temp;Humidity;BMP_temperature;BMP_pressure;BME280_temperature;BME280_humidity;BME280_pressure;Samples;Min_cycle;Max_cycle;Signal;HPM_P1;HPM_P2
2022/01/10 00:00:50;;;;;;;28.67;14.15;;;;;;;0.46;79.60;98841.16;6310201;22;20050;-90
2022/01/10 00:03:25;;;;;;;39.35;19.45;;;;;;;0.74;79.58;98898.78;6310150;22;20032;-90
2022/01/10 00:05:54;;;;;;;37.03;15.57;;;;;;;0.74;79.99;98891.25;6309720;22;20015;-90
2022/01/10 00:08:24;;;;;;;31.85;14.23;;;;;;;0.74;79.59;98903.81;6282663;22;20453;-88
2022/01/10 00:10:54;;;;;;;32.88;14.80;;;;;;;0.40;80.10;98846.03;6257610;22;20106;-91
2022/01/10 00:13:25;;;;;;;36.88;15.23;;;;;;;0.78;79.70;98894.69;6309502;22;20439;-90
2022/01/10 00:15:57;;;;;;;32.28;16.02;;;;;;;0.80;80.08;98903.94;6257887;22;20041;-90
2022/01/10 00:18:26;;;;;;;34.17;14.60;;;;;;;0.45;79.79;98839.47;6282777;22;20451;-90
2022/01/10 00:20:57;;;;;;;;;;;;;;;0.80;79.89;98908.13;6283737;22;20022;-90
2022/01/10 00:23:30;;;;;;;29.10;14.63;;;;;;;0.72;80.09;98885.31;6282531;22;19918;-91
2022/01/10 00:26:00;;;;;;;35.67;14.80;;;;;;;0.43;80.00;98846.94;6310876;22;20049;-91
2022/01/10 00:28:30;;;;;;;36.97;14.75;;;;;;;0.65;79.86;98878.44;6310022;22;20094;-90
2022/01/10 00:31:01;;;;;;;;;;;;;;;0.81;80.00;98899.78;6283306;22;20023;-90
2022/01/10 00:33:31;;;;;;;30.95;14.05;;;;;;;0.81;79.69;98898.13;6310363;22;19946;-90
2022/01/10 00:36:00;;;;;;;;;;;;;;;0.85;79.73;98904.91;6283156;22;20015;-90
2022/01/10 00:38:30;;;;;;;36.47;14.38;;;;;;;0.42;79.53;98829.34;6257414;22;19915;-90
2022/01/10 00:41:01;;;;;;;37.22;15.55;;;;;;;0.56;79.74;98858.13;6282690;22;20378;-90
2022/01/10 00:43:35;;;;;;;32.95;14.82;;;;;;;0.85;79.71;98907.44;6232555;22;20020;-90
2022/01/10 00:46:07;;;;;;;32.22;14.85;;;;;;;0.80;80.03;98908.97;6282483;22;20018;-90
2022/01/10 00:48:40;;;;;;;30.88;14.93;;;;;;;0.84;80.10;98913.25;6282647;22;20454;-89
2022/01/10 00:51:11;;;;;;;32.65;15.77;;;;;;;0.82;79.99;98902.31;6309679;22;20091;-90
2022/01/10 00:53:49;;;;;;;33.38;16.42;;;;;;;0.46;79.80;98853.69;6309904;22;20431;-90
2022/01/10 00:56:20;;;;;;;32.65;15.40;;;;;;;0.41;79.65;98832.66;6283025;22;20015;-90
2022/01/10 00:58:53;;;;;;;30.50;15.18;;;;;;;0.56;79.59;98873.19;6283267;22;20045;-90
2022/01/10 01:01:24;;;;;;;35.75;15.15;;;;;;;0.80;79.74;98908.13;6282688;22;20381;-90
2022/01/10 01:03:55;;;;;;;34.33;15.15;;;;;;;0.68;79.96;98893.59;6282516;22;20053;-90
2022/01/10 01:06:26;;;;;;;38.95;17.20;;;;;;;0.85;79.20;98922.50;6310191;22;20021;-90
2022/01/10 01:09:00;;;;;;;32.38;15.63;;;;;;;0.86;79.84;98926.72;6282409;22;20019;-90
2022/01/10 01:14:24;;;;;;;38.80;17.20;;;;;;;0.87;79.99;98927.53;6309735;22;20388;-91
2022/01/10 01:17:10;;;;;;;31.20;15.40;;;;;;;0.85;79.54;98916.63;6232352;22;20031;-90
2022/01/10 01:25:13;;;;;;;43.17;17.83;;;;;;;0.85;79.61;98922.50;6256177;22;20019;-90
2022/01/10 01:27:44;;;;;;;36.38;16.58;;;;;;;0.60;79.55;98890.88;6251545;22;20073;-90
2022/01/10 01:30:14;;;;;;;40.22;17.00;;;;;;;0.60;79.87;98885.88;6251774;22;20019;-91
2022/01/10 01:32:45;;;;;;;;;;;;;;;0.83;79.63;98914.06;6252343;22;20023;-91
2022/01/10 01:35:23;;;;;;;38.47;16.50;;;;;;;0.73;79.64;98907.13;6251767;22;19915;-91
2022/01/10 01:37:55;;;;;;;42.38;17.05;;;;;;;0.76;79.09;98897.16;6227204;22;20035;-91
2022/01/10 01:40:27;;;;;;;38.83;16.80;;;;;;;0.76;79.82;98897.16;6226772;22;20050;-91
2022/01/10 01:42:58;;;;;;;35.35;17.02;;;;;;;0.78;79.30;98895.53;6226381;22;20090;-91
2022/01/10 01:45:39;;;;;;;40.00;16.73;;;;;;;0.89;79.06;98904.16;6226319;22;20011;-90
2022/01/10 01:48:12;;;;;;;38.10;16.77;;;;;;;0.48;79.37;98839.56;6226358;22;20026;-90
2022/01/10 01:50:44;;;;;;;38.63;17.23;;;;;;;0.83;79.44;98903.19;6251331;22;20463;-91
2022/01/10 01:53:13;;;;;;;38.83;18.38;;;;;;;0.89;79.21;98914.22;6251174;22;20034;-91
2022/01/10 01:55:46;;;;;;;43.45;17.65;;;;;;;0.89;79.37;98911.69;6251570;22;20015;-90
2022/01/10 01:58:19;;;;;;;40.33;18.58;;;;;;;0.90;79.21;98910.03;6251233;22;20023;-91
2022/01/10 02:00:49;;;;;;;36.88;15.65;;;;;;;0.89;79.17;98914.22;6252432;22;20019;-91
2022/01/10 02:03:21;;;;;;;42.08;18.25;;;;;;;0.89;79.03;98911.69;6251229;22;20020;-91
2022/01/10 02:06:00;;;;;;;34.67;16.30;;;;;;;0.80;79.10;98893.91;6277891;22;20024;-90
2022/01/10 02:08:32;;;;;;;36.55;16.00;;;;;;;0.63;79.47;98858.34;6251528;22;20019;-90
2022/01/10 02:11:04;;;;;;;35.42;15.90;;;;;;;0.93;79.15;98905.97;6251094;22;20024;-90
2022/01/10 02:13:34;;;;;;;36.25;16.95;;;;;;;0.91;79.55;98904.22;6250874;22;20028;-89
2022/01/10 02:16:17;;;;;;;36.13;15.77;;;;;;;0.90;79.16;98903.38;6278332;22;20085;-90
2022/01/10 02:18:49;;;;;;;32.55;16.40;;;;;;;0.92;79.11;98909.28;6201489;22;20026;-90
2022/01/10 02:21:20;;;;;;;35.30;15.27;;;;;;;0.91;79.62;98912.59;6251016;22;20019;-90
2022/01/10 02:23:51;;;;;;;34.88;15.30;;;;;;;0.88;78.78;98912.53;6226699;22;20447;-90
2022/01/10 02:26:26;;;;;;;32.53;15.30;;;;;;;0.59;79.73;98858.22;6245487;23;20444;-91
2022/01/10 02:29:00;;;;;;;36.72;17.85;;;;;;;0.61;79.43;98861.63;6220952;23;20020;-89
2022/01/10 02:31:30;;;;;;;38.65;17.60;;;;;;;0.82;79.60;98897.28;6245996;23;20023;-90
2022/01/10 02:34:00;;;;;;;37.20;16.98;;;;;;;0.83;79.39;98893.13;6246612;23;20066;-90
2022/01/10 02:36:34;;;;;;;36.65;16.00;;;;;;;0.93;79.04;98916.00;6245770;23;20082;-91
2022/01/10 02:39:08;;;;;;;37.33;16.52;;;;;;;0.95;78.90;98918.53;6220851;23;20020;-90
2022/01/10 02:41:40;;;;;;;34.55;17.20;;;;;;;0.91;78.88;98920.13;6245627;23;20507;-90
2022/01/10 02:44:19;;;;;;;38.22;17.55;;;;;;;0.59;78.89;98878.31;6246274;23;20016;-90
2022/01/10 02:46:49;;;;;;;35.88;16.42;;;;;;;0.80;78.90;98914.00;6245490;23;20016;-90
2022/01/10 02:49:32;;;;;;;37.55;17.02;;;;;;;0.80;79.11;98919.00;6245919;23;20016;-90
2022/01/10 02:52:06;;;;;;;36.60;16.77;;;;;;;0.62;79.43;98889.25;6246429;23;20062;-90
2022/01/10 02:54:38;;;;;;;37.03;16.02;;;;;;;0.82;78.91;98916.53;6220344;23;20063;-90
2022/01/10 02:57:15;;;;;;;39.08;16.25;;;;;;;0.64;79.34;98882.66;6220648;23;20020;-90
2022/01/10 02:59:45;;;;;;;33.33;16.30;;;;;;;0.83;79.54;98914.06;6245798;23;20098;-90
2022/01/10 03:02:19;;;;;;;37.22;17.38;;;;;;;0.63;79.18;98880.06;6245481;23;20348;-90
2022/01/10 03:04:51;;;;;;;40.92;18.15;;;;;;;0.21;79.29;98809.59;6246447;23;20095;-90
2022/01/10 03:07:23;;;;;;;;;;;;;;;0.87;79.05;98910.81;6245975;23;20016;-90
2022/01/10 03:09:53;;;;;;;36.85;15.50;;;;;;;0.83;79.49;98918.25;6245894;23;19982;-90
2022/01/10 03:12:23;;;;;;;;;;;;;;;0.80;79.03;98906.47;6246507;23;20114;-90
2022/01/10 03:14:53;;;;;;;35.85;16.67;;;;;;;0.52;79.12;98856.38;6246244;22;19923;-90
2022/01/10 03:17:24;;;;;;;38.67;16.27;;;;;;;0.84;78.98;98905.72;6248323;23;20023;-90
2022/01/10 03:19:55;;;;;;;41.10;16.25;;;;;;;0.46;79.41;98846.16;6222401;23;20099;-90
2022/01/10 03:22:27;;;;;;;35.53;16.63;;;;;;;0.86;79.45;98909.13;6248128;23;20329;-90
2022/01/10 03:24:57;;;;;;;36.92;17.08;;;;;;;0.88;79.57;98917.56;6247936;23;20030;-90
2022/01/10 03:27:29;;;;;;;36.72;16.98;;;;;;;0.89;79.65;98919.25;6247676;23;20017;-90
2022/01/10 03:29:59;;;;;;;36.40;16.42;;;;;;;0.72;79.57;98892.84;6247824;23;20463;-90
2022/01/10 03:32:29;;;;;;;42.38;18.17;;;;;;;0.45;78.78;98844.47;6247797;23;20095;-88
2022/01/10 03:35:10;;;;;;;35.58;16.35;;;;;;;0.92;79.94;98929.38;6249325;22;20054;-90
2022/01/10 03:37:41;;;;;;;29.85;15.45;;;;;;;0.91;79.11;98929.34;6249847;22;20008;-90
2022/01/10 03:40:12;;;;;;;30.60;15.88;;;;;;;0.17;79.00;98806.97;6247357;23;20408;-90
2022/01/10 03:42:42;;;;;;;34.13;17.02;;;;;;;0.93;79.20;98946.16;6222708;23;20025;-90
2022/01/10 03:45:13;;;;;;;35.78;16.42;;;;;;;0.90;79.25;98935.16;6222522;23;20111;-90
2022/01/10 03:47:43;;;;;;;39.00;17.55;;;;;;;0.86;79.66;98944.28;6247474;23;20016;-91
2022/01/10 03:50:13;;;;;;;41.97;17.90;;;;;;;0.61;79.82;98901.78;6223376;23;20016;-90
2022/01/10 03:52:46;;;;;;;35.42;17.10;;;;;;;0.58;79.95;98891.66;6222016;23;20027;-90
2022/01/10 03:55:16;;;;;;;40.80;17.85;;;;;;;0.59;79.44;98890.84;6247145;23;20016;-90
2022/01/10 03:57:46;;;;;;;36.72;17.27;;;;;;;0.97;79.51;98947.06;6247717;23;20016;-89
2022/01/10 04:00:19;;;;;;;32.55;17.20;;;;;;;0.62;79.47;98893.47;6247913;23;20078;-89
2022/01/10 04:02:54;;;;;;;33.25;14.48;;;;;;;0.84;79.91;98940.88;6260334;23;20020;-90
2022/01/10 04:05:30;;;;;;;32.95;16.10;;;;;;;0.91;79.79;98962.81;6228716;23;20060;-88
2022/01/10 04:08:03;;;;;;;40.75;17.55;;;;;;;0.84;79.39;98950.09;6274555;22;20004;-89
2022/01/10 04:10:33;;;;;;;33.35;16.83;;;;;;;0.93;79.81;98963.72;6230904;23;20020;-90
2022/01/10 04:13:03;;;;;;;40.63;17.23;;;;;;;0.89;79.69;98966.94;6247264;23;20020;-90
2022/01/10 04:15:33;;;;;;;35.65;15.95;;;;;;;0.83;79.37;98958.41;6247258;23;20024;-90
2022/01/10 04:18:03;;;;;;;34.50;16.60;;;;;;;0.80;79.52;98949.16;6247949;23;20012;-90
2022/01/10 04:20:33;;;;;;;35.47;16.25;;;;;;;0.91;79.75;98979.56;6248702;23;20099;-90
2022/01/10 04:23:04;;;;;;;;;;;;;;;0.88;79.11;98982.00;6222411;23;20019;-90
2022/01/10 04:25:35;;;;;;;34.58;15.07;;;;;;;0.95;80.11;98983.84;6246821;23;19923;-90
2022/01/10 04:28:06;;;;;;;39.17;15.30;;;;;;;0.99;79.43;98983.97;6246691;23;20012;-90
2022/01/10 04:30:36;;;;;;;35.05;15.95;;;;;;;0.97;80.19;98988.09;6247114;23;20020;-90
2022/01/10 04:33:10;;;;;;;30.90;15.30;;;;;;;0.37;79.42;98891.09;6248321;23;20047;-90
2022/01/10 04:35:42;;;;;;;34.15;15.07;;;;;;;0.61;79.24;98932.75;6247182;23;20027;-89
2022/01/10 04:38:14;;;;;;;38.65;16.83;;;;;;;0.89;79.68;98974.50;6246993;23;20012;-89
2022/01/10 04:40:44;;;;;;;37.38;15.60;;;;;;;0.73;79.67;98947.28;6247467;23;20040;-90
2022/01/10 04:43:15;;;;;;;35.70;15.55;;;;;;;0.67;79.39;98937.09;6248275;22;20024;-90
2022/01/10 04:45:46;;;;;;;36.88;15.68;;;;;;;0.63;79.71;98942.84;6221556;23;20016;-90
2022/01/10 04:48:18;;;;;;;38.60;16.45;;;;;;;0.94;79.55;99008.09;6246820;23;20027;-90
2022/01/10 04:51:11;;;;;;;35.03;16.80;;;;;;;0.98;80.13;99004.03;6247427;23;20024;-90
2022/01/10 04:53:48;;;;;;;44.42;18.25;;;;;;;1.00;79.16;99013.31;6248118;22;20012;-91
2022/01/10 04:56:20;;;;;;;43.53;17.85;;;;;;;1.03;79.99;99018.38;6246991;23;20016;-89
2022/01/10 04:58:54;;;;;;;36.92;16.83;;;;;;;0.10;79.22;98865.31;6246934;23;20016;-91
2022/01/10 05:01:25;;;;;;;36.55;16.80;;;;;;;0.40;79.59;98906.25;6185944;23;20048;-91
2022/01/10 05:04:00;;;;;;;41.28;16.08;;;;;;;0.94;79.81;99003.09;6161185;23;20020;-89
2022/01/10 05:06:30;;;;;;;41.17;16.38;;;;;;;1.04;79.59;99025.13;6185968;23;20019;-90
2022/01/10 05:09:01;;;;;;;38.45;16.00;;;;;;;0.39;79.55;98924.59;6136153;23;20021;-90
2022/01/10 05:11:58;;;;;;;36.28;15.82;;;;;;;0.94;79.76;99029.84;6182477;23;20036;-90
2022/01/10 05:14:28;;;;;;;37.42;15.88;;;;;;;0.94;79.42;99035.75;6160389;23;20079;-90
2022/01/10 05:16:59;;;;;;;35.72;15.90;;;;;;;0.51;79.86;98965.09;6161252;23;20084;-89
2022/01/10 05:19:29;;;;;;;38.35;18.13;;;;;;;0.48;79.64;98975.06;6087259;23;20047;-90
2022/01/10 05:22:00;;;;;;;37.90;16.42;;;;;;;0.43;79.99;98966.56;6185414;23;20025;-90
2022/01/10 05:24:31;;;;;;;35.95;16.25;;;;;;;0.81;79.64;99050.44;6185060;23;20495;-90
2022/01/10 05:27:02;;;;;;;36.85;16.58;;;;;;;0.80;80.38;99047.06;6185706;23;20040;-90
2022/01/10 05:29:32;;;;;;;31.85;15.20;;;;;;;0.77;80.07;99048.66;6160296;23;20017;-90
2022/01/10 05:32:02;;;;;;;;;;;;;;;0.78;80.11;99056.22;6185176;23;20017;-89
2022/01/10 05:34:52;;;;;;;35.45;15.85;;;;;;;0.76;80.07;99052.84;6185428;23;19939;-89
2022/01/10 05:37:23;;;;;;;34.78;15.88;;;;;;;0.65;79.99;99046.66;6185337;23;20538;-90
2022/01/10 05:39:56;;;;;;;34.25;16.20;;;;;;;0.71;80.40;99046.81;6256448;22;20074;-90
2022/01/10 05:42:26;;;;;;;35.17;17.27;;;;;;;0.66;79.89;99045.84;6221155;23;20468;-89
2022/01/10 05:44:57;;;;;;;43.63;18.85;;;;;;;0.40;80.06;99019.16;6196104;23;20023;-90
2022/01/10 05:47:27;;;;;;;37.13;16.05;;;;;;;0.61;80.56;99052.41;6246021;23;20083;-90
2022/01/10 05:50:02;;;;;;;38.10;17.52;;;;;;;0.64;80.30;99058.38;6246030;23;20043;-90
2022/01/10 05:52:39;;;;;;;38.78;16.92;;;;;;;0.67;80.18;99067.66;6223267;23;20024;-90
2022/01/10 05:55:15;;;;;;;46.78;19.15;;;;;;;0.76;80.81;99074.56;6246001;23;20020;-90
2022/01/10 05:57:49;;;;;;;42.78;18.73;;;;;;;0.43;80.92;99024.28;6246431;23;20074;-90
2022/01/10 06:00:21;;;;;;;39.45;18.70;;;;;;;0.67;80.57;99073.50;6247392;23;20107;-90
2022/01/10 06:02:51;;;;;;;;;;;;;;;0.76;80.73;99084.63;6253504;22;20028;-91
2022/01/10 06:05:31;;;;;;;39.67;17.15;;;;;;;0.71;80.72;99094.53;6272491;22;20316;-91
2022/01/10 06:08:08;;;;;;;36.08;18.33;;;;;;;0.66;81.05;99091.91;6221174;23;20044;-91
2022/01/10 06:10:45;;;;;;;39.30;16.95;;;;;;;0.33;80.99;99039.88;6197994;23;20030;-91
2022/01/10 06:13:26;;;;;;;41.78;18.15;;;;;;;0.68;81.14;99099.47;6248757;22;20012;-91
2022/01/10 06:15:58;;;;;;;32.45;17.48;;;;;;;0.52;81.26;99079.75;6225247;23;20471;-90
2022/01/10 06:18:45;;;;;;;43.15;18.73;;;;;;;0.72;80.85;99103.75;6256929;22;20023;-91
2022/01/10 06:21:16;;;;;;;51.42;21.05;;;;;;;0.42;80.59;99050.16;6216414;22;20015;-89
2022/01/10 06:23:48;;;;;;;36.83;17.60;;;;;;;0.60;81.06;99085.84;6235891;22;20446;-89
2022/01/10 06:26:25;;;;;;;36.95;17.70;;;;;;;0.82;81.02;99113.25;6284300;22;20016;-88
2022/01/10 06:28:57;;;;;;;42.70;18.58;;;;;;;0.87;81.21;99116.75;6259910;22;20067;-88
2022/01/10 06:31:27;;;;;;;37.88;18.02;;;;;;;0.20;81.06;99012.72;6282485;22;20016;-88
2022/01/10 06:34:12;;;;;;;42.78;18.60;;;;;;;0.76;80.94;99107.22;6260196;22;20069;-88
2022/01/10 06:36:45;;;;;;;39.85;18.05;;;;;;;0.19;80.62;99004.38;6205786;22;20042;-88
2022/01/10 06:39:17;;;;;;;41.42;18.30;;;;;;;0.79;80.90;99109.81;6181670;22;20017;-89
2022/01/10 06:41:53;;;;;;;44.80;19.92;;;;;;;0.66;80.55;99093.56;6283015;22;20020;-89
2022/01/10 06:44:23;;;;;;;45.63;19.85;;;;;;;0.59;80.74;99079.97;6281557;22;20015;-89
2022/01/10 06:46:55;;;;;;;49.78;22.45;;;;;;;0.70;80.75;99092.81;6281886;22;20023;-88
2022/01/10 06:49:28;;;;;;;43.88;19.42;;;;;;;0.72;80.63;99101.25;6206455;22;20022;-91
2022/01/10 06:52:00;;;;;;;42.35;18.15;;;;;;;0.34;80.36;99042.41;6281891;22;20038;-90
2022/01/10 06:54:32;;;;;;;37.60;17.02;;;;;;;0.36;80.35;99042.47;6256022;22;20026;-89
2022/01/10 06:57:05;;;;;;;41.55;17.95;;;;;;;0.68;80.55;99112.00;6282178;22;20050;-89
2022/01/10 06:59:40;;;;;;;41.72;16.45;;;;;;;0.40;80.60;99056.81;6281654;22;20072;-89
2022/01/10 07:02:11;;;;;;;37.13;16.58;;;;;;;0.28;80.68;99042.25;6281757;22;20018;-89
2022/01/10 07:04:43;;;;;;;33.97;16.83;;;;;;;1.09;80.60;99169.31;6256044;22;20023;-89
2022/01/10 07:10:18;;;;;;;42.75;15.80;;;;;;;0.56;80.07;99068.97;6281421;22;20015;-89
2022/01/10 07:13:18;;;;;;;39.00;16.95;;;;;;;1.13;80.44;99171.09;6179241;22;20023;-88
2022/01/10 07:16:09;;;;;;;35.70;15.60;;;;;;;0.48;80.20;99067.94;6275578;22;20086;-88
2022/01/10 07:18:41;;;;;;;39.95;17.88;;;;;;;0.50;79.73;99068.81;6251137;22;20019;-89
2022/01/10 07:21:27;;;;;;;34.03;16.80;;;;;;;1.10;79.84;99176.03;6275875;22;20043;-89
2022/01/10 07:24:45;;;;;;;34.63;15.48;;;;;;;1.08;80.29;99197.72;6250784;22;20023;-89
2022/01/10 07:27:16;;;;;;;29.20;13.90;;;;;;;0.12;79.38;99040.06;6225754;22;20024;-89
2022/01/10 07:30:33;;;;;;;31.23;12.30;;;;;;;1.11;79.65;99205.38;6277691;22;20050;-89
2022/01/10 07:33:02;;;;;;;33.60;15.18;;;;;;;1.11;79.31;99207.88;6202771;22;20027;-89
2022/01/10 07:35:43;;;;;;;32.63;13.95;;;;;;;0.38;79.66;99089.41;6275819;22;20050;-90
2022/01/10 07:38:13;;;;;;;34.50;15.40;;;;;;;0.99;79.32;99177.38;6250294;22;20020;-90
2022/01/10 07:40:48;;;;;;;36.85;15.05;;;;;;;0.71;79.25;99128.81;6277123;22;20050;-89
2022/01/10 07:43:20;;;;;;;37.30;15.48;;;;;;;0.60;79.45;99123.50;6226974;22;20011;-90
2022/01/10 07:46:41;;;;;;;32.42;15.52;;;;;;;0.92;79.52;99180.53;6251271;22;20019;-90
2022/01/10 07:49:12;;;;;;;31.77;14.23;;;;;;;1.24;78.95;99235.06;6253000;22;20016;-89
2022/01/10 07:51:46;;;;;;;31.13;14.85;;;;;;;0.18;78.73;99024.38;6225993;22;20023;-90
2022/01/10 07:54:16;;;;;;;30.65;14.35;;;;;;;1.28;79.09;99206.69;6250518;22;20050;-89
2022/01/10 07:56:47;;;;;;;31.75;14.98;;;;;;;1.27;78.61;99194.94;6250525;22;20024;-89
2022/01/10 07:59:44;;;;;;;34.88;13.82;;;;;;;0.52;78.88;99027.91;6250737;22;20034;-90
2022/01/10 08:02:26;;;;;;;31.23;13.15;;;;;;;1.63;78.59;99202.63;6158565;22;20026;-89
2022/01/10 08:04:56;;;;;;;31.38;13.65;;;;;;;1.07;78.32;99095.56;6227100;22;20372;-92
2022/01/10 08:07:31;;;;;;;28.73;12.27;;;;;;;1.94;78.21;99234.50;6252522;22;20047;-90
2022/01/10 08:10:02;;;;;;;30.10;13.90;;;;;;;1.73;77.52;99186.09;6226644;22;20022;-89
2022/01/10 08:12:32;;;;;;;24.58;12.02;;;;;;;1.69;77.29;99184.34;6227506;22;20028;-90
2022/01/10 08:15:26;;;;;;;30.23;12.98;;;;;;;2.13;77.07;99241.69;6279032;22;20043;-90
2022/01/10 08:18:25;;;;;;;24.67;13.13;;;;;;;2.24;77.15;99247.84;6201323;22;20040;-88
2022/01/10 08:21:01;;;;;;;27.42;11.93;;;;;;;1.87;76.22;99174.75;6118334;23;20453;-89
2022/01/10 08:23:33;;;;;;;30.45;12.57;;;;;;;2.12;76.52;99231.56;6191496;23;20021;-89
2022/01/10 08:26:03;;;;;;;26.85;13.80;;;;;;;1.82;75.88;99188.88;6216995;23;20023;-90
2022/01/10 08:28:41;;;;;;;28.35;14.65;;;;;;;2.28;76.43;99254.63;6142261;23;20024;-87
2022/01/10 08:31:12;;;;;;;28.02;12.80;;;;;;;1.42;75.70;99093.97;6216532;23;20051;-88
2022/01/10 08:33:46;;;;;;;27.23;12.00;;;;;;;2.00;75.48;99192.72;6191742;23;20016;-87
2022/01/10 08:36:16;;;;;;;24.48;12.30;;;;;;;2.50;75.34;99256.88;6192234;23;20027;-90
2022/01/10 08:38:47;;;;;;;31.23;13.75;;;;;;;2.48;75.16;99238.38;6217732;23;20040;-86
2022/01/10 08:41:17;;;;;;;25.48;12.38;;;;;;;2.60;75.19;99243.69;6217592;23;20104;-88
2022/01/10 08:43:47;;;;;;;26.05;12.23;;;;;;;2.33;75.12;99222.03;6190906;23;20330;-88
2022/01/10 08:46:18;;;;;;;26.92;12.90;;;;;;;1.78;74.71;99134.25;6216221;23;20020;-88
2022/01/10 08:48:56;;;;;;;22.95;11.20;;;;;;;2.41;74.24;99236.53;6140487;23;20024;-88
2022/01/10 08:51:27;;;;;;;26.48;11.95;;;;;;;2.10;74.46;99168.63;6190992;23;20063;-88
2022/01/10 08:53:59;;;;;;;25.27;10.30;;;;;;;2.64;74.22;99235.38;6191312;23;20099;-87
2022/01/10 08:56:29;;;;;;;26.20;10.82;;;;;;;2.88;73.97;99260.28;6191140;23;20025;-88
2022/01/10 08:58:59;;;;;;;25.52;10.45;;;;;;;2.99;74.26;99270.63;6217397;23;20024;-89
2022/01/10 09:01:36;;;;;;;21.10;9.98;;;;;;;2.86;73.14;99256.88;6217600;23;20016;-91
2022/01/10 09:04:15;;;;;;;18.85;9.30;;;;;;;2.38;73.41;99186.09;6217270;23;20027;-89
2022/01/10 09:06:48;;;;;;;18.65;9.00;;;;;;;3.13;72.66;99296.97;6217911;23;20020;-90
2022/01/10 09:09:20;;;;;;;21.92;9.00;;;;;;;3.15;72.38;99295.34;6216479;23;20047;-88
2022/01/10 09:11:58;;;;;;;20.25;9.23;;;;;;;2.96;72.71;99255.41;6190689;23;20075;-91
2022/01/10 09:14:30;;;;;;;23.27;9.43;;;;;;;3.23;71.92;99293.84;6192064;23;20022;-89
2022/01/10 09:16:59;;;;;;;17.25;8.52;;;;;;;3.45;71.98;99300.22;6166879;23;20048;-89
2022/01/10 09:19:32;;;;;;;19.23;8.82;;;;;;;3.49;71.45;99307.00;6199520;23;20496;-91
2022/01/10 09:22:03;;;;;;;20.45;9.43;;;;;;;3.27;71.34;99272.91;6188025;23;20088;-90
2022/01/10 09:24:33;;;;;;;18.98;8.20;;;;;;;3.40;70.99;99315.25;6187664;23;20053;-90
2022/01/10 09:27:07;;;;;;;21.08;8.75;;;;;;;3.66;71.25;99309.06;6188061;23;20021;-89
2022/01/10 09:29:37;;;;;;;19.40;8.77;;;;;;;3.65;70.68;99287.19;6186632;23;20043;-89
2022/01/10 09:32:08;;;;;;;19.88;8.50;;;;;;;2.91;70.35;99176.34;6210435;23;20017;-89
2022/01/10 09:34:40;;;;;;;21.15;9.57;;;;;;;3.47;70.12;99274.19;6188278;23;20088;-89
2022/01/10 09:37:10;;;;;;;19.67;8.05;;;;;;;3.74;70.23;99315.09;6187756;23;20040;-89
2022/01/10 09:39:40;;;;;;;18.17;8.50;;;;;;;3.77;70.34;99289.09;6185941;23;20023;-89
2022/01/10 09:42:12;;;;;;;17.80;8.30;;;;;;;4.00;70.05;99311.47;6187334;23;20020;-89
2022/01/10 09:44:46;;;;;;;17.35;7.70;;;;;;;3.78;69.95;99245.38;6138069;23;20341;-89
2022/01/10 09:47:17;;;;;;;17.70;7.28;;;;;;;4.24;69.00;99300.09;6185954;23;20013;-89
2022/01/10 09:49:50;;;;;;;15.60;6.97;;;;;;;4.09;68.73;99242.59;6187333;23;20096;-88
2022/01/10 09:52:21;;;;;;;15.90;6.90;;;;;;;4.33;68.28;99300.25;6161814;23;20017;-89
2022/01/10 09:54:54;;;;;;;16.60;6.35;;;;;;;4.33;67.71;99303.63;6185435;23;20024;-90
2022/01/10 09:57:25;;;;;;;13.75;6.40;;;;;;;4.27;68.00;99297.63;6185858;23;20037;-89
2022/01/10 09:59:56;;;;;;;15.88;6.75;;;;;;;4.32;67.39;99301.09;6186125;23;20068;-90
2022/01/10 10:02:33;;;;;;;15.48;7.20;;;;;;;4.51;67.92;99303.13;6161022;23;20021;-87
2022/01/10 10:05:21;;;;;;;15.75;7.18;;;;;;;4.51;66.88;99308.19;6186459;23;20031;-88
2022/01/10 10:07:53;;;;;;;17.77;7.90;;;;;;;4.58;66.98;99309.97;6187224;23;20105;-88
2022/01/10 10:10:24;;;;;;;15.55;7.22;;;;;;;4.38;66.58;99264.16;6209381;23;20092;-86
2022/01/10 10:12:56;;;;;;;18.38;7.53;;;;;;;4.70;66.71;99310.19;6186176;23;20107;-87
2022/01/10 10:15:31;;;;;;;14.55;7.47;;;;;;;4.74;66.46;99299.28;6161205;23;20044;-88
2022/01/10 10:18:03;;;;;;;13.35;6.60;;;;;;;4.38;66.44;99255.72;6211191;23;20024;-89
2022/01/10 10:20:35;;;;;;;14.55;7.10;;;;;;;4.66;66.54;99267.97;6185766;23;20017;-90
2022/01/10 10:23:18;;;;;;;16.20;7.05;;;;;;;4.90;65.60;99248.13;6187393;23;20072;-87
2022/01/10 10:25:51;;;;;;;13.90;6.97;;;;;;;5.11;65.42;99299.00;6161864;23;20071;-87
2022/01/10 10:28:21;;;;;;;16.45;7.70;;;;;;;5.48;65.67;99305.44;6098473;23;20021;-86
2022/01/10 10:30:59;;;;;;;12.18;5.78;;;;;;;5.29;64.88;99288.31;6197910;23;20013;-88
2022/01/10 10:33:30;;;;;;;16.45;7.53;;;;;;;4.79;64.44;99254.72;6169185;23;20075;-89
2022/01/10 10:36:08;;;;;;;17.05;6.57;;;;;;;4.54;64.75;99223.16;6186103;23;20100;-88
2022/01/10 10:38:40;;;;;;;13.70;6.25;;;;;;;5.08;64.82;99310.78;6210596;23;20092;-89
2022/01/10 10:41:11;;;;;;;13.70;6.22;;;;;;;4.62;65.01;99230.84;6209816;23;20024;-87
2022/01/10 10:43:44;;;;;;;12.38;5.80;;;;;;;5.13;64.93;99312.56;6186549;23;20024;-87
2022/01/10 10:46:17;;;;;;;13.68;6.38;;;;;;;4.72;64.71;99187.22;6185616;23;20508;-93
2022/01/10 10:48:52;;;;;;;14.15;6.70;;;;;;;5.54;64.06;99322.41;6185356;23;20017;-86
2022/01/10 10:51:29;;;;;;;14.80;6.55;;;;;;;5.51;63.40;99308.03;6184500;23;20399;-87
2022/01/10 10:54:03;;;;;;;13.88;6.68;;;;;;;5.61;63.51;99251.63;6185260;23;20067;-86
2022/01/10 10:56:35;;;;;;;13.85;5.47;;;;;;;5.87;62.70;99270.53;6160691;23;20023;-86
2022/01/10 10:59:07;;;;;;;11.27;4.35;;;;;;;6.35;61.17;99325.94;6186843;23;20084;-88
2022/01/10 11:01:39;;;;;;;9.27;3.83;;;;;;;5.87;60.82;99289.94;6160808;23;20017;-88
2022/01/10 11:04:12;;;;;;;7.72;3.85;;;;;;;6.40;60.21;99328.50;6184561;23;20458;-87
2022/01/10 11:06:46;;;;;;;8.85;3.45;;;;;;;6.51;59.86;99332.00;6185476;23;20092;-88
2022/01/10 11:09:16;;;;;;;8.10;4.32;;;;;;;6.56;59.08;99321.06;6184720;23;20017;-90
2022/01/10 11:11:46;;;;;;;;;;;;;;;6.48;58.35;99337.88;6160256;23;20033;-87
2022/01/10 11:14:18;;;;;;;7.45;3.22;;;;;;;5.90;57.41;99305.19;6210206;23;19916;-89
2022/01/10 11:16:52;;;;;;;7.38;3.50;;;;;;;6.12;57.87;99332.41;6185229;23;20453;-88
2022/01/10 11:19:27;;;;;;;8.50;3.70;;;;;;;6.23;57.55;99333.41;6186841;23;20088;-89
2022/01/10 11:22:05;;;;;;;7.28;3.42;;;;;;;6.31;57.81;99334.31;6215752;23;20044;-88
2022/01/10 11:24:47;;;;;;;9.63;3.58;;;;;;;6.52;57.36;99333.72;6216667;23;20099;-89
2022/01/10 11:27:31;;;;;;;6.18;3.28;;;;;;;6.10;56.77;99275.81;6216282;23;20029;-88
2022/01/10 11:30:03;;;;;;;7.20;3.30;;;;;;;5.69;56.39;99224.72;6190624;23;20040;-89
2022/01/10 11:32:56;;;;;;;5.85;2.90;;;;;;;6.26;56.63;99330.06;6190703;23;20013;-88
2022/01/10 11:35:50;;;;;;;8.13;3.17;;;;;;;6.58;56.73;99344.75;6190554;23;20028;-87
2022/01/10 11:38:38;;;;;;;6.55;3.40;;;;;;;6.54;56.41;99342.16;6191449;23;20441;-89
2022/01/10 11:41:11;;;;;;;8.07;3.55;;;;;;;6.46;56.19;99339.56;6214885;23;20012;-89
2022/01/10 11:43:49;;;;;;;7.22;3.30;;;;;;;6.28;56.06;99341.06;6143641;23;20448;-91
2022/01/10 11:46:27;;;;;;;8.80;3.47;;;;;;;6.46;56.58;99347.16;6189847;23;20020;-90
2022/01/10 11:49:02;;;;;;;8.23;3.70;;;;;;;6.28;55.75;99303.91;6218166;23;20074;-92
2022/01/10 11:51:37;;;;;;;8.07;3.20;;;;;;;6.19;55.34;99298.72;6192361;23;20516;-91
2022/01/10 11:54:15;;;;;;;6.28;3.03;;;;;;;6.37;55.59;99358.88;6218202;23;20052;-90
2022/01/10 11:56:47;;;;;;;5.85;2.95;;;;;;;6.43;54.83;99356.44;6166976;23;20050;-89
2022/01/10 11:59:26;;;;;;;7.53;3.53;;;;;;;6.87;55.18;99356.84;6191726;23;20034;-88
2022/01/10 12:02:03;;;;;;;8.35;2.63;;;;;;;7.19;54.46;99356.28;6166718;23;20405;-88
2022/01/10 12:04:38;;;;;;;7.28;3.35;;;;;;;7.19;54.26;99356.28;6217606;23;20016;-88
2022/01/10 12:07:13;;;;;;;7.63;3.20;;;;;;;7.08;53.85;99362.94;6217782;23;20025;-85
2022/01/10 12:09:47;;;;;;;7.97;3.35;;;;;;;7.14;53.81;99362.16;6216939;23;20021;-84
2022/01/10 12:12:18;;;;;;;7.35;3.20;;;;;;;7.29;53.63;99347.88;6191250;23;20020;-87
2022/01/10 12:14:51;;;;;;;8.75;3.20;;;;;;;7.27;53.26;99358.88;6216327;23;20016;-87